Time;durP1;ratioP1;P1;durP2;ratioP2;P2;SDS_P1;SDS_P2;PMS_P1;PMS_P2;Temp;Humidity;BMP_temperature;BMP_pressure;BME280_temperature;BME280_humidity;BME280_pressure;Samples;Min_cycle;Max_cycle;Signal;HPM_P1;HPM_P2
2023/01/26 00:01:45;;;;;;;22.23;15.45;;;;;;;;;;5051789;28;20095;-55
2023/01/26 00:04:11;;;;;;;24.45;15.95;;;;;;;;;;5051980;28;20039;-53
2023/01/26 00:06:37;;;;;;;21.25;14.25;;;;;;;;;;5051509;28;20033;-51
2023/01/26 00:09:03;;;;;;;22.75;15.50;;;;;;;;;;5051873;28;20525;-52
2023/01/26 00:11:29;;;;;;;21.58;15.95;;;;;;;;;;5051543;28;20079;-55
2023/01/26 00:13:56;;;;;;;23.50;16.00;;;;;;;;;;5052058;28;20091;-55
2023/01/26 00:16:22;;;;;;;22.88;16.38;;;;;;;;;;5052040;28;20025;-54
2023/01/26 00:18:48;;;;;;;22.50;15.25;;;;;;;;;;5051292;28;20401;-51
2023/01/26 00:21:15;;;;;;;23.08;16.85;;;;;;;;;;5051543;28;20033;-51
2023/01/26 00:23:42;;;;;;;21.73;16.92;;;;;;;;;;5050721;28;20028;-51
2023/01/26 00:26:12;;;;;;;21.63;15.88;;;;;;;;;;5051546;28;20021;-52
2023/01/26 00:28:39;;;;;;;23.38;15.20;;;;;;;;;;5051304;28;20104;-52
2023/01/26 00:31:10;;;;;;;23.58;16.58;;;;;;;;;;5050289;28;20025;-52
2023/01/26 00:33:36;;;;;;;21.48;15.10;;;;;;;;;;5030998;28;20031;-61
2023/01/26 00:36:02;;;;;;;20.50;14.77;;;;;;;;;;5031365;28;20025;-62
2023/01/26 00:38:28;;;;;;;22.25;15.82;;;;;;;;;;5031038;28;20437;-52
2023/01/26 00:40:54;;;;;;;23.75;15.70;;;;;;;;;;5031517;28;20026;-61
2023/01/26 00:43:20;;;;;;;25.85;17.02;;;;;;;;;;5031421;28;20107;-51
2023/01/26 00:45:47;;;;;;;23.33;16.05;;;;;;;;;;5031093;28;20493;-61
2023/01/26 00:48:13;;;;;;;23.50;15.45;;;;;;;;;;5031157;28;20389;-61
2023/01/26 00:50:38;;;;;;;22.38;15.40;;;;;;;;;;5030895;28;20022;-60
2023/01/26 00:53:04;;;;;;;21.60;15.35;;;;;;;;;;5033195;28;20134;-52
2023/01/26 00:55:34;;;;;;;21.17;15.70;;;;;;;;;;5049840;28;20013;-51
2023/01/26 00:58:00;;;;;;;21.77;15.63;;;;;;;;;;5050268;28;20440;-52
2023/01/26 01:00:27;;;;;;;24.00;16.05;;;;;;;;;;5049932;28;20074;-54
2023/01/26 01:02:55;;;;;;;19.50;14.48;;;;;;;;;;5050518;28;20481;-51
2023/01/26 01:05:21;;;;;;;20.67;14.93;;;;;;;;;;5049730;28;20504;-61
2023/01/26 01:07:47;;;;;;;24.00;16.58;;;;;;;;;;5050649;28;20361;-52
2023/01/26 01:10:13;;;;;;;22.33;15.52;;;;;;;;;;5050693;28;20032;-56
2023/01/26 01:12:39;;;;;;;20.65;15.77;;;;;;;;;;5050563;28;20080;-61
2023/01/26 01:15:05;;;;;;;20.88;15.57;;;;;;;;;;5050856;28;20053;-60
2023/01/26 01:17:31;;;;;;;22.70;15.95;;;;;;;;;;5048850;28;20037;-55
2023/01/26 01:19:57;;;;;;;21.77;15.90;;;;;;;;;;5048724;28;20025;-53
2023/01/26 01:22:23;;;;;;;21.70;16.38;;;;;;;;;;5049025;28;20099;-54
2023/01/26 01:24:49;;;;;;;20.27;15.25;;;;;;;;;;5048446;28;20053;-59
2023/01/26 01:27:15;;;;;;;20.85;14.80;;;;;;;;;;5048882;28;20056;-56
2023/01/26 01:29:41;;;;;;;19.92;15.32;;;;;;;;;;5048958;28;20075;-53
2023/01/26 01:32:07;;;;;;;20.30;14.95;;;;;;;;;;5049836;28;20381;-61
2023/01/26 01:34:33;;;;;;;21.10;15.10;;;;;;;;;;5051323;28;20029;-53
2023/01/26 01:36:59;;;;;;;19.83;14.63;;;;;;;;;;5054695;28;20019;-50
2023/01/26 01:39:25;;;;;;;20.30;14.52;;;;;;;;;;5054882;28;20024;-61
2023/01/26 01:41:51;;;;;;;20.60;14.60;;;;;;;;;;5054390;28;20100;-55
2023/01/26 01:44:21;;;;;;;19.65;14.13;;;;;;;;;;5054540;28;20136;-62
2023/01/26 01:46:56;;;;;;;19.75;14.65;;;;;;;;;;5054245;28;20029;-53
2023/01/26 01:49:27;;;;;;;19.45;14.35;;;;;;;;;;5054649;28;20021;-55
2023/01/26 01:51:57;;;;;;;20.05;14.25;;;;;;;;;;5054490;28;20123;-56
2023/01/26 01:54:28;;;;;;;18.23;14.02;;;;;;;;;;5054524;28;20508;-52
2023/01/26 01:56:56;;;;;;;20.45;14.88;;;;;;;;;;5054392;28;20116;-54
2023/01/26 01:59:22;;;;;;;20.85;14.07;;;;;;;;;;5054520;28;20051;-50
2023/01/26 02:01:50;;;;;;;20.38;14.68;;;;;;;;;;5053930;28;20029;-54
2023/01/26 02:04:16;;;;;;;20.60;13.98;;;;;;;;;;5054104;28;20485;-52
2023/01/26 02:06:46;;;;;;;19.63;14.45;;;;;;;;;;5053726;28;20029;-56
2023/01/26 02:10:17;;;;;;;18.88;14.15;;;;;;;;;;5054191;28;20397;-54
2023/01/26 02:11:59;;;;;;;;;;;;;;;;;;5054141;28;20041;-55
2023/01/26 02:14:25;;;;;;;18.73;13.52;;;;;;;;;;5054304;28;19904;-52
2023/01/26 02:16:51;;;;;;;19.15;14.13;;;;;;;;;;5053600;28;20037;-56
2023/01/26 02:19:25;;;;;;;18.23;13.90;;;;;;;;;;5053756;28;20112;-57
2023/01/26 02:21:51;;;;;;;19.95;14.43;;;;;;;;;;5053659;28;20477;-58
2023/01/26 02:24:29;;;;;;;18.67;13.60;;;;;;;;;;5053766;28;20040;-61
2023/01/26 02:26:55;;;;;;;18.50;13.23;;;;;;;;;;5054185;28;20025;-54
2023/01/26 02:29:21;;;;;;;16.75;12.98;;;;;;;;;;5053628;28;20035;-53
2023/01/26 02:31:47;;;;;;;19.25;13.68;;;;;;;;;;5053390;28;20033;-55
2023/01/26 02:34:14;;;;;;;19.25;13.82;;;;;;;;;;5053602;28;20132;-60
2023/01/26 02:36:40;;;;;;;19.10;13.57;;;;;;;;;;5053298;28;20017;-55
2023/01/26 02:39:08;;;;;;;16.73;12.95;;;;;;;;;;5053514;28;20143;-54
2023/01/26 02:44:19;;;;;;;17.63;13.18;;;;;;;;;;5053510;28;20064;-55
2023/01/26 02:46:45;;;;;;;17.02;12.70;;;;;;;;;;5052395;28;20025;-54
2023/01/26 02:51:55;;;;;;;18.25;13.93;;;;;;;;;;5053620;28;20180;-56
2023/01/26 02:57:06;;;;;;;18.08;12.98;;;;;;;;;;5053325;28;20104;-54
2023/01/26 02:59:32;;;;;;;17.02;12.48;;;;;;;;;;5052954;28;20021;-55
2023/01/26 03:01:58;;;;;;;15.98;11.88;;;;;;;;;;5053014;28;20032;-55
2023/01/26 03:04:24;;;;;;;16.70;11.77;;;;;;;;;;5053360;28;20337;-61
2023/01/26 03:06:50;;;;;;;16.77;12.15;;;;;;;;;;5052624;28;20043;-55
2023/01/26 03:09:16;;;;;;;17.05;11.90;;;;;;;;;;5052934;28;20061;-55
2023/01/26 03:11:42;;;;;;;15.40;11.80;;;;;;;;;;5052609;28;20025;-54
2023/01/26 03:14:11;;;;;;;16.38;12.20;;;;;;;;;;5052803;28;20497;-60
2023/01/26 03:16:37;;;;;;;17.45;12.60;;;;;;;;;;5052644;28;20036;-52
2023/01/26 03:29:44;;;;;;;18.58;12.55;;;;;;;;;;5052239;28;20101;-61
2023/01/26 03:32:11;;;;;;;16.40;10.93;;;;;;;;;;5052439;28;20040;-58
2023/01/26 03:34:37;;;;;;;16.05;11.95;;;;;;;;;;5052217;28;20469;-52
2023/01/26 03:37:03;;;;;;;16.50;12.45;;;;;;;;;;5052439;28;20032;-54
2023/01/26 03:56:18;;;;;;;16.75;12.27;;;;;;;;;;5052267;28;20051;-61
2023/01/26 03:58:45;;;;;;;17.00;12.35;;;;;;;;;;5050687;28;20434;-52
2023/01/26 04:01:18;;;;;;;16.50;12.13;;;;;;;;;;5051946;28;20021;-51
2023/01/26 04:09:14;;;;;;;15.73;11.55;;;;;;;;;;5051989;28;20102;-52
2023/01/26 04:11:40;;;;;;;17.60;11.82;;;;;;;;;;5051627;28;20029;-55
2023/01/26 04:22:19;;;;;;;15.10;11.48;;;;;;;;;;5051654;28;20032;-54
2023/01/26 04:24:45;;;;;;;15.43;11.50;;;;;;;;;;5051231;28;20397;-51
2023/01/26 04:27:11;;;;;;;16.17;11.73;;;;;;;;;;5051483;28;20104;-51
2023/01/26 04:29:37;;;;;;;14.52;11.60;;;;;;;;;;5051180;28;20445;-52
2023/01/26 04:32:03;;;;;;;15.93;12.20;;;;;;;;;;5051160;28;20037;-52
2023/01/26 04:34:29;;;;;;;14.43;11.13;;;;;;;;;;5051213;28;20017;-52
2023/01/26 04:36:55;;;;;;;14.63;10.38;;;;;;;;;;5051580;28;20488;-57
2023/01/26 04:39:21;;;;;;;14.13;10.85;;;;;;;;;;5051270;28;20091;-51
2023/01/26 04:41:47;;;;;;;14.50;11.40;;;;;;;;;;5050974;28;20024;-56
2023/01/26 04:44:13;;;;;;;15.68;11.77;;;;;;;;;;5051234;28;20029;-51
2023/01/26 04:46:39;;;;;;;16.02;11.65;;;;;;;;;;5050954;28;20037;-61
2023/01/26 04:49:05;;;;;;;14.13;10.48;;;;;;;;;;5050945;28;20028;-51
2023/01/26 04:51:31;;;;;;;14.02;11.15;;;;;;;;;;5050805;28;20095;-52
2023/01/26 04:53:57;;;;;;;15.98;11.52;;;;;;;;;;5051182;28;20032;-54
2023/01/26 04:56:25;;;;;;;13.35;10.27;;;;;;;;;;5051427;28;20032;-55
2023/01/26 04:58:51;;;;;;;15.32;11.40;;;;;;;;;;5050800;28;20025;-56
2023/01/26 05:01:18;;;;;;;15.68;11.57;;;;;;;;;;5050835;28;20082;-61
2023/01/26 05:03:44;;;;;;;15.75;11.25;;;;;;;;;;5050876;28;20025;-55
2023/01/26 05:06:10;;;;;;;14.52;10.20;;;;;;;;;;5050771;28;20036;-60
2023/01/26 05:08:37;;;;;;;14.15;11.10;;;;;;;;;;5050663;28;20021;-51
2023/01/26 05:11:03;;;;;;;15.98;11.40;;;;;;;;;;5050705;28;20021;-52
2023/01/26 05:13:29;;;;;;;14.88;10.38;;;;;;;;;;5050510;28;20040;-55
2023/01/26 05:15:55;;;;;;;13.32;10.77;;;;;;;;;;5051016;28;20025;-58
2023/01/26 05:18:21;;;;;;;12.05;9.65;;;;;;;;;;5050794;28;20103;-54
2023/01/26 05:20:47;;;;;;;15.82;10.98;;;;;;;;;;5050518;28;20033;-52
2023/01/26 05:23:13;;;;;;;12.88;10.13;;;;;;;;;;5050752;28;20032;-51
2023/01/26 05:25:39;;;;;;;13.18;9.50;;;;;;;;;;5050499;28;20025;-51
2023/01/26 05:28:05;;;;;;;13.75;10.63;;;;;;;;;;5050725;28;20025;-52
2023/01/26 05:30:31;;;;;;;15.68;9.85;;;;;;;;;;5050261;28;20460;-55
2023/01/26 05:33:04;;;;;;;12.98;9.25;;;;;;;;;;5050590;28;20095;-54
2023/01/26 05:35:30;;;;;;;16.23;9.52;;;;;;;;;;5049563;28;20485;-54
2023/01/26 05:37:56;;;;;;;14.00;10.48;;;;;;;;;;5051017;28;20048;-51
2023/01/26 05:40:22;;;;;;;13.75;9.18;;;;;;;;;;5050522;28;20103;-57
2023/01/26 05:42:48;;;;;;;14.55;10.77;;;;;;;;;;5050241;28;20450;-58
2023/01/26 05:45:14;;;;;;;13.25;9.23;;;;;;;;;;5050251;28;20112;-53
2023/01/26 05:47:43;;;;;;;13.90;10.07;;;;;;;;;;5050082;28;20025;-57
2023/01/26 05:50:09;;;;;;;13.07;9.60;;;;;;;;;;5050188;28;20033;-54
2023/01/26 05:52:35;;;;;;;11.60;9.45;;;;;;;;;;5050236;28;20385;-52
2023/01/26 05:55:01;;;;;;;12.88;8.88;;;;;;;;;;5050617;28;20040;-51
2023/01/26 05:57:27;;;;;;;11.98;9.50;;;;;;;;;;5050311;28;20021;-52
2023/01/26 05:59:53;;;;;;;12.93;9.63;;;;;;;;;;5050803;28;20493;-54
2023/01/26 06:02:20;;;;;;;11.75;9.65;;;;;;;;;;5049966;28;20050;-53
2023/01/26 06:04:46;;;;;;;13.02;9.52;;;;;;;;;;5050436;28;20036;-61
2023/01/26 06:07:15;;;;;;;13.40;9.60;;;;;;;;;;5049673;28;20432;-55
2023/01/26 06:09:41;;;;;;;14.30;8.98;;;;;;;;;;5050370;28;20025;-55
2023/01/26 06:12:12;;;;;;;10.25;8.25;;;;;;;;;;5049625;28;20124;-52
2023/01/26 06:14:38;;;;;;;11.15;9.07;;;;;;;;;;5050385;28;20028;-54
2023/01/26 06:17:04;;;;;;;9.98;7.95;;;;;;;;;;5049710;28;20107;-59
2023/01/26 06:19:30;;;;;;;13.00;9.00;;;;;;;;;;5049887;28;20037;-58
2023/01/26 06:21:56;;;;;;;11.82;8.63;;;;;;;;;;5050645;28;20477;-61
2023/01/26 06:24:22;;;;;;;8.93;7.75;;;;;;;;;;5053973;28;20071;-54
2023/01/26 06:26:48;;;;;;;11.57;9.02;;;;;;;;;;5052903;28;20094;-61
2023/01/26 06:29:15;;;;;;;10.65;8.15;;;;;;;;;;5053713;28;20024;-57
2023/01/26 06:31:41;;;;;;;10.70;8.20;;;;;;;;;;5053279;28;20394;-57
2023/01/26 06:34:07;;;;;;;11.65;8.18;;;;;;;;;;5052715;28;20028;-60
2023/01/26 06:36:33;;;;;;;10.80;8.32;;;;;;;;;;5053660;28;20434;-54
2023/01/26 06:38:59;;;;;;;10.73;8.13;;;;;;;;;;5053849;28;20031;-55
2023/01/26 06:41:26;;;;;;;11.88;8.05;;;;;;;;;;5053950;28;20021;-56
2023/01/26 06:43:52;;;;;;;10.18;7.80;;;;;;;;;;5051380;28;20389;-55
2023/01/26 06:46:18;;;;;;;9.63;7.03;;;;;;;;;;5051964;28;20029;-55
2023/01/26 06:48:44;;;;;;;9.98;7.68;;;;;;;;;;5052586;28;20032;-54
2023/01/26 06:51:20;;;;;;;13.60;8.23;;;;;;;;;;5052312;28;20033;-52
2023/01/26 06:53:49;;;;;;;10.93;7.43;;;;;;;;;;5052835;28;20452;-60
2023/01/26 06:56:14;;;;;;;9.68;7.43;;;;;;;;;;5050272;28;20037;-55
2023/01/26 06:58:40;;;;;;;11.27;7.95;;;;;;;;;;5052666;28;20029;-56
2023/01/26 07:01:06;;;;;;;11.90;8.43;;;;;;;;;;5053354;28;20056;-58
2023/01/26 07:03:33;;;;;;;9.88;7.80;;;;;;;;;;5047926;28;20025;-54
2023/01/26 07:05:59;;;;;;;10.93;7.90;;;;;;;;;;5052916;28;20106;-54
2023/01/26 07:08:26;;;;;;;10.77;7.65;;;;;;;;;;5052670;28;20029;-57
2023/01/26 07:10:52;;;;;;;12.07;8.38;;;;;;;;;;5052867;28;20025;-55
2023/01/26 07:13:18;;;;;;;11.52;8.27;;;;;;;;;;5052165;28;20044;-60
2023/01/26 07:15:44;;;;;;;12.85;8.73;;;;;;;;;;5052008;28;20035;-60
2023/01/26 07:18:10;;;;;;;15.30;8.85;;;;;;;;;;5052420;28;20036;-54
2023/01/26 07:20:36;;;;;;;15.43;9.27;;;;;;;;;;5052578;28;20021;-57
2023/01/26 07:23:02;;;;;;;14.32;8.30;;;;;;;;;;5052806;28;20036;-56
2023/01/26 07:25:28;;;;;;;12.23;9.20;;;;;;;;;;5051965;28;20343;-58
2023/01/26 07:27:55;;;;;;;14.18;9.07;;;;;;;;;;5052155;28;20032;-54
2023/01/26 07:30:21;;;;;;;14.90;8.70;;;;;;;;;;5051092;28;20028;-57
2023/01/26 07:32:47;;;;;;;13.18;9.05;;;;;;;;;;5050670;28;20412;-57
2023/01/26 07:35:13;;;;;;;15.90;8.75;;;;;;;;;;5050882;28;20504;-58
2023/01/26 07:37:39;;;;;;;16.88;9.13;;;;;;;;;;5050621;28;20025;-61
2023/01/26 07:40:05;;;;;;;17.15;9.30;;;;;;;;;;5050160;28;20032;-58
2023/01/26 07:42:31;;;;;;;15.10;9.38;;;;;;;;;;5051321;28;20115;-58
2023/01/26 07:44:58;;;;;;;13.25;9.18;;;;;;;;;;5050965;28;20092;-53
2023/01/26 07:47:24;;;;;;;12.77;8.50;;;;;;;;;;5051030;28;20071;-60
2023/01/26 07:49:50;;;;;;;13.90;8.85;;;;;;;;;;5051607;28;20067;-61
2023/01/26 07:52:16;;;;;;;12.48;9.18;;;;;;;;;;5051141;28;20041;-61
2023/01/26 07:54:42;;;;;;;14.13;8.70;;;;;;;;;;5051370;28;20025;-60
2023/01/26 07:57:08;;;;;;;15.55;8.10;;;;;;;;;;5052304;28;20052;-58
2023/01/26 07:59:34;;;;;;;13.18;8.10;;;;;;;;;;5052057;28;20095;-60
2023/01/26 08:02:00;;;;;;;14.15;8.27;;;;;;;;;;5051524;28;20021;-61
2023/01/26 08:04:26;;;;;;;13.90;7.82;;;;;;;;;;5050609;28;20029;-59
2023/01/26 08:06:52;;;;;;;15.43;8.02;;;;;;;;;;5050570;28;20029;-55
2023/01/26 08:09:18;;;;;;;14.35;7.95;;;;;;;;;;5050266;28;20039;-57
2023/01/26 08:11:44;;;;;;;11.20;7.88;;;;;;;;;;5050647;28;20036;-55
2023/01/26 08:14:10;;;;;;;12.85;8.15;;;;;;;;;;5051177;28;20025;-56
2023/01/26 08:16:36;;;;;;;14.85;8.05;;;;;;;;;;5050898;28;20439;-55
2023/01/26 08:19:03;;;;;;;12.15;7.07;;;;;;;;;;5050527;28;20020;-54
2023/01/26 08:21:29;;;;;;;19.48;7.43;;;;;;;;;;5051008;28;20489;-52
2023/01/26 08:24:00;;;;;;;10.95;7.10;;;;;;;;;;5051975;28;20040;-54
2023/01/26 08:26:26;;;;;;;11.07;7.43;;;;;;;;;;5051128;28;20033;-57
2023/01/26 08:28:52;;;;;;;10.70;7.20;;;;;;;;;;5051159;28;20523;-56
2023/01/26 08:31:19;;;;;;;13.90;7.85;;;;;;;;;;5050944;28;20029;-51
2023/01/26 08:33:46;;;;;;;11.07;7.43;;;;;;;;;;5047997;28;20028;-55
2023/01/26 08:36:13;;;;;;;12.48;7.80;;;;;;;;;;5051290;28;20025;-55
2023/01/26 08:38:39;;;;;;;11.43;7.55;;;;;;;;;;5051304;28;20071;-54
2023/01/26 08:41:06;;;;;;;11.75;6.95;;;;;;;;;;5051561;28;20025;-53
2023/01/26 08:43:32;;;;;;;8.77;6.78;;;;;;;;;;5051195;28;20106;-55
2023/01/26 08:45:58;;;;;;;11.27;7.78;;;;;;;;;;5051012;28;20481;-54
2023/01/26 08:48:24;;;;;;;9.50;7.43;;;;;;;;;;5051587;28;20512;-56
2023/01/26 08:50:54;;;;;;;11.50;7.63;;;;;;;;;;5051098;28;20029;-56
2023/01/26 08:53:20;;;;;;;10.55;7.43;;;;;;;;;;5051246;28;20075;-54
2023/01/26 08:55:46;;;;;;;9.48;6.93;;;;;;;;;;5051102;28;20029;-57
2023/01/26 08:58:12;;;;;;;9.57;7.03;;;;;;;;;;5051287;28;20108;-55
2023/01/26 09:00:38;;;;;;;8.98;7.13;;;;;;;;;;5050969;28;20401;-56
2023/01/26 09:03:05;;;;;;;11.63;7.22;;;;;;;;;;5051211;28;20151;-60
2023/01/26 09:05:32;;;;;;;10.90;7.43;;;;;;;;;;5050834;28;20039;-54
2023/01/26 09:07:58;;;;;;;8.65;6.20;;;;;;;;;;5051297;28;20025;-56
2023/01/26 09:10:24;;;;;;;12.32;7.30;;;;;;;;;;5051552;28;20021;-55
2023/01/26 09:12:50;;;;;;;10.18;7.03;;;;;;;;;;5050841;28;20029;-55
2023/01/26 09:15:16;;;;;;;10.57;7.25;;;;;;;;;;5051136;28;20094;-53
2023/01/26 09:17:42;;;;;;;9.90;7.47;;;;;;;;;;5050513;28;20119;-51
2023/01/26 09:20:08;;;;;;;9.73;7.25;;;;;;;;;;5050514;28;20047;-57
2023/01/26 09:22:34;;;;;;;8.93;6.97;;;;;;;;;;5050845;28;20078;-54
2023/01/26 09:25:00;;;;;;;8.77;6.35;;;;;;;;;;5050978;28;20025;-53
2023/01/26 09:27:27;;;;;;;8.57;7.03;;;;;;;;;;5051283;28;20082;-56
2023/01/26 09:29:54;;;;;;;11.27;6.95;;;;;;;;;;5051260;28;20091;-61
2023/01/26 09:32:20;;;;;;;9.38;6.50;;;;;;;;;;5050814;28;20520;-55
2023/01/26 09:34:46;;;;;;;9.20;6.28;;;;;;;;;;5050746;28;20485;-53
2023/01/26 09:37:11;;;;;;;11.20;6.72;;;;;;;;;;5050989;28;20103;-55
2023/01/26 09:39:37;;;;;;;10.90;6.85;;;;;;;;;;5050650;28;20044;-55
2023/01/26 09:42:22;;;;;;;9.80;6.75;;;;;;;;;;5049904;28;20067;-54
2023/01/26 09:45:06;;;;;;;10.48;7.00;;;;;;;;;;5050430;28;20386;-55
2023/01/26 09:47:41;;;;;;;9.55;7.07;;;;;;;;;;5050654;28;20028;-54
2023/01/26 09:50:24;;;;;;;8.98;6.97;;;;;;;;;;5050820;28;20074;-55
2023/01/26 09:52:55;;;;;;;10.13;6.55;;;;;;;;;;5050264;28;20087;-54
2023/01/26 09:55:23;;;;;;;10.68;6.63;;;;;;;;;;5050389;28;20064;-56
2023/01/26 09:57:55;;;;;;;10.23;6.72;;;;;;;;;;5052932;28;20025;-53
2023/01/26 10:00:30;;;;;;;9.20;6.47;;;;;;;;;;5054622;28;20032;-61
2023/01/26 10:03:03;;;;;;;11.20;7.05;;;;;;;;;;5054966;28;20082;-54
2023/01/26 10:05:42;;;;;;;9.30;7.28;;;;;;;;;;5053923;28;20029;-55
2023/01/26 10:08:12;;;;;;;10.10;6.75;;;;;;;;;;5054341;28;20036;-59
2023/01/26 10:10:41;;;;;;;10.13;6.68;;;;;;;;;;5054171;28;20389;-55
2023/01/26 10:13:09;;;;;;;10.30;7.00;;;;;;;;;;5054646;28;20033;-56
2023/01/26 10:15:40;;;;;;;11.60;7.30;;;;;;;;;;5054120;28;20025;-57
2023/01/26 10:18:08;;;;;;;11.30;7.25;;;;;;;;;;5054067;28;20473;-62
2023/01/26 10:20:35;;;;;;;10.18;7.40;;;;;;;;;;5053994;28;20044;-57
2023/01/26 10:23:05;;;;;;;8.38;6.07;;;;;;;;;;5054181;28;20040;-61
2023/01/26 10:25:35;;;;;;;9.20;5.72;;;;;;;;;;5053934;28;20021;-60
2023/01/26 10:28:05;;;;;;;9.93;6.53;;;;;;;;;;5054023;28;20040;-56
2023/01/26 10:30:31;;;;;;;10.23;6.63;;;;;;;;;;5053676;28;20155;-59
2023/01/26 10:32:57;;;;;;;8.95;5.82;;;;;;;;;;5054358;28;20112;-52
2023/01/26 10:35:23;;;;;;;10.80;6.60;;;;;;;;;;5054304;28;20029;-53
2023/01/26 10:37:53;;;;;;;8.48;6.13;;;;;;;;;;5053726;28;20050;-61
2023/01/26 10:40:20;;;;;;;10.00;5.97;;;;;;;;;;5053798;28;20440;-55
2023/01/26 10:42:58;;;;;;;9.65;6.35;;;;;;;;;;5053493;28;20021;-55
2023/01/26 10:45:26;;;;;;;8.52;6.13;;;;;;;;;;5054107;28;20029;-55
2023/01/26 10:48:11;;;;;;;10.20;6.35;;;;;;;;;;5054086;28;20112;-61
2023/01/26 10:50:37;;;;;;;9.43;5.35;;;;;;;;;;5053388;28;20029;-55
2023/01/26 10:53:03;;;;;;;10.10;5.47;;;;;;;;;;5053489;28;20107;-55
2023/01/26 10:55:30;;;;;;;14.00;6.15;;;;;;;;;;5053282;28;20458;-56
2023/01/26 10:57:56;;;;;;;12.63;5.90;;;;;;;;;;5053859;28;20025;-57
2023/01/26 11:00:27;;;;;;;9.93;5.57;;;;;;;;;;5053780;28;20025;-56
2023/01/26 11:02:54;;;;;;;11.32;6.05;;;;;;;;;;5053542;28;20044;-61
2023/01/26 11:05:22;;;;;;;10.73;5.90;;;;;;;;;;5053192;28;20044;-54
2023/01/26 11:07:49;;;;;;;10.25;5.90;;;;;;;;;;5052541;28;20039;-54
2023/01/26 11:10:17;;;;;;;10.65;5.22;;;;;;;;;;5053266;28;20535;-60
2023/01/26 11:12:43;;;;;;;9.20;4.93;;;;;;;;;;5052988;28;20033;-56
2023/01/26 11:15:20;;;;;;;9.60;5.90;;;;;;;;;;5053143;28;20031;-53
2023/01/26 11:17:58;;;;;;;12.40;5.32;;;;;;;;;;5052669;28;20017;-55
2023/01/26 11:20:39;;;;;;;11.93;5.07;;;;;;;;;;5053097;28;20086;-58
2023/01/26 11:23:15;;;;;;;13.82;5.78;;;;;;;;;;5052842;28;20363;-57
2023/01/26 11:25:56;;;;;;;11.73;5.43;;;;;;;;;;5052700;28;20022;-59
2023/01/26 11:28:36;;;;;;;10.20;4.40;;;;;;;;;;5052858;28;20037;-55
2023/01/26 11:31:21;;;;;;;9.63;5.07;;;;;;;;;;5052823;28;20025;-58
2023/01/26 11:33:55;;;;;;;6.97;4.18;;;;;;;;;;5052584;28;20931;-56
2023/01/26 11:36:40;;;;;;;8.05;4.07;;;;;;;;;;5052706;28;20462;-61
2023/01/26 11:39:13;;;;;;;9.27;4.28;;;;;;;;;;5052663;28;20021;-56
2023/01/26 11:41:39;;;;;;;12.93;4.53;;;;;;;;;;5051809;28;20021;-59
2023/01/26 11:44:19;;;;;;;8.07;4.25;;;;;;;;;;5052615;28;20491;-56
2023/01/26 11:46:51;;;;;;;10.60;4.60;;;;;;;;;;5052169;28;20033;-55
2023/01/26 11:49:36;;;;;;;8.60;3.83;;;;;;;;;;5052496;28;20035;-54
2023/01/26 11:52:20;;;;;;;9.38;3.80;;;;;;;;;;5052438;28;20508;-54
2023/01/26 11:54:57;;;;;;;8.90;3.40;;;;;;;;;;5052121;28;20033;-60
2023/01/26 11:57:27;;;;;;;11.75;4.20;;;;;;;;;;5052589;28;20091;-59
2023/01/26 12:00:02;;;;;;;8.02;4.15;;;;;;;;;;5052496;28;20424;-56
2023/01/26 12:02:33;;;;;;;8.70;3.47;;;;;;;;;;5052203;28;20053;-61
2023/01/26 12:05:01;;;;;;;10.35;3.53;;;;;;;;;;5052240;28;20025;-54
2023/01/26 12:07:30;;;;;;;8.63;3.95;;;;;;;;;;5051722;28;20029;-57
2023/01/26 12:09:56;;;;;;;9.75;3.78;;;;;;;;;;5052345;28;20021;-55
2023/01/26 12:12:32;;;;;;;7.38;3.70;;;;;;;;;;5051859;28;20404;-54
2023/01/26 12:15:10;;;;;;;11.82;4.47;;;;;;;;;;5052107;28;20021;-57
2023/01/26 12:17:56;;;;;;;8.38;3.33;;;;;;;;;;5051486;28;20067;-56
2023/01/26 12:20:25;;;;;;;8.27;3.35;;;;;;;;;;5051280;28;20079;-53
2023/01/26 12:23:01;;;;;;;10.32;3.78;;;;;;;;;;5051487;28;20059;-61
2023/01/26 12:25:47;;;;;;;11.43;3.67;;;;;;;;;;5052078;28;20029;-55
2023/01/26 12:28:16;;;;;;;9.75;3.47;;;;;;;;;;5051842;28;20029;-54
2023/01/26 12:30:48;;;;;;;8.70;3.10;;;;;;;;;;5051370;28;20436;-54
2023/01/26 12:33:14;;;;;;;10.43;3.83;;;;;;;;;;5050534;28;20036;-55
2023/01/26 12:35:58;;;;;;;11.40;4.00;;;;;;;;;;5051255;28;20025;-55
2023/01/26 12:38:27;;;;;;;7.30;2.95;;;;;;;;;;5051876;28;20400;-55
2023/01/26 12:40:56;;;;;;;11.20;3.50;;;;;;;;;;5051803;28;20488;-55
2023/01/26 12:43:25;;;;;;;8.27;3.58;;;;;;;;;;5051816;28;20063;-55
2023/01/26 12:45:54;;;;;;;6.22;3.22;;;;;;;;;;5051088;28;20031;-56
2023/01/26 12:48:32;;;;;;;10.50;2.90;;;;;;;;;;5051360;28;20029;-54
2023/01/26 12:51:09;;;;;;;7.70;3.30;;;;;;;;;;5051493;28;20032;-55
2023/01/26 12:53:42;;;;;;;9.52;3.38;;;;;;;;;;5051178;28;20083;-54
2023/01/26 12:56:11;;;;;;;11.00;3.15;;;;;;;;;;5051401;28;20124;-54
2023/01/26 12:58:40;;;;;;;7.40;2.38;;;;;;;;;;5051106;28;20032;-52
2023/01/26 13:01:10;;;;;;;8.52;3.95;;;;;;;;;;5051210;28;20078;-60
2023/01/26 13:03:38;;;;;;;10.68;3.20;;;;;;;;;;5051061;28;20048;-61
2023/01/26 13:06:10;;;;;;;7.13;2.80;;;;;;;;;;5051119;28;20033;-61
2023/01/26 13:08:36;;;;;;;8.70;3.15;;;;;;;;;;5051029;28;20091;-55
2023/01/26 13:11:06;;;;;;;7.10;3.03;;;;;;;;;;5051026;28;20503;-54
2023/01/26 13:13:34;;;;;;;8.75;2.85;;;;;;;;;;5050725;28;20078;-55
2023/01/26 13:16:29;;;;;;;7.75;3.20;;;;;;;;;;5050825;28;20036;-55
2023/01/26 13:18:57;;;;;;;7.78;2.92;;;;;;;;;;5051361;28;20025;-55
2023/01/26 13:21:26;;;;;;;7.68;3.05;;;;;;;;;;5051390;28;20029;-55
2023/01/26 13:23:53;;;;;;;9.63;2.88;;;;;;;;;;5051356;28;20102;-56
2023/01/26 13:26:21;;;;;;;11.00;3.45;;;;;;;;;;5050948;28;20032;-55
2023/01/26 13:28:48;;;;;;;9.30;3.42;;;;;;;;;;5050666;28;20729;-53
2023/01/26 13:31:28;;;;;;;8.10;2.50;;;;;;;;;;5052879;28;20024;-58
2023/01/26 13:33:55;;;;;;;8.80;2.72;;;;;;;;;;5055274;28;20048;-53
2023/01/26 13:36:22;;;;;;;6.30;2.55;;;;;;;;;;5055141;28;20040;-55
2023/01/26 13:38:55;;;;;;;8.55;3.17;;;;;;;;;;5054768;28;20029;-59
2023/01/26 13:41:21;;;;;;;8.13;2.70;;;;;;;;;;5054990;28;20025;-55
2023/01/26 13:43:54;;;;;;;8.90;2.80;;;;;;;;;;5054718;28;20451;-52
2023/01/26 13:46:30;;;;;;;8.52;2.88;;;;;;;;;;5054737;28;20075;-52
2023/01/26 13:48:56;;;;;;;6.22;1.90;;;;;;;;;;5055231;28;20424;-55
2023/01/26 13:51:26;;;;;;;8.15;2.90;;;;;;;;;;5055015;28;20478;-55
2023/01/26 13:54:12;;;;;;;6.25;2.38;;;;;;;;;;5054845;28;20468;-53
2023/01/26 13:56:39;;;;;;;7.50;2.75;;;;;;;;;;5054323;28;20033;-58
2023/01/26 13:59:13;;;;;;;6.32;2.03;;;;;;;;;;5054640;28;20028;-52
2023/01/26 14:01:45;;;;;;;5.97;2.30;;;;;;;;;;5054149;28;20199;-54
2023/01/26 14:04:15;;;;;;;7.18;3.00;;;;;;;;;;5054031;28;20475;-52
2023/01/26 14:06:43;;;;;;;6.60;2.50;;;;;;;;;;5054017;28;20033;-54
2023/01/26 14:09:11;;;;;;;8.38;2.50;;;;;;;;;;5054701;28;20360;-55
2023/01/26 14:11:38;;;;;;;8.65;2.60;;;;;;;;;;5053876;28;20032;-60
2023/01/26 14:14:04;;;;;;;4.75;1.58;;;;;;;;;;5054188;28;20060;-54
2023/01/26 14:16:32;;;;;;;6.88;2.00;;;;;;;;;;5053988;28;20099;-51
2023/01/26 14:19:04;;;;;;;6.15;2.20;;;;;;;;;;5054171;28;20082;-58
2023/01/26 14:21:33;;;;;;;8.38;2.65;;;;;;;;;;5053979;28;20021;-52
2023/01/26 14:24:00;;;;;;;4.72;1.70;;;;;;;;;;5053959;28;20083;-52
2023/01/26 14:26:30;;;;;;;7.80;2.70;;;;;;;;;;5054318;28;20022;-52
2023/01/26 14:28:59;;;;;;;8.15;2.30;;;;;;;;;;5054319;28;20037;-53
2023/01/26 14:31:26;;;;;;;7.40;2.20;;;;;;;;;;5054124;28;20025;-51
2023/01/26 14:33:56;;;;;;;9.48;2.72;;;;;;;;;;5052789;28;20036;-54
2023/01/26 14:36:22;;;;;;;4.82;1.85;;;;;;;;;;5052913;28;20036;-58
2023/01/26 14:38:49;;;;;;;5.88;2.05;;;;;;;;;;5051274;28;20048;-58
2023/01/26 14:41:17;;;;;;;8.43;2.28;;;;;;;;;;5052839;28;20115;-53
2023/01/26 14:43:43;;;;;;;7.78;2.55;;;;;;;;;;5052575;28;20036;-53
2023/01/26 14:46:13;;;;;;;7.15;1.90;;;;;;;;;;5053696;28;20025;-61
2023/01/26 14:48:55;;;;;;;6.60;2.10;;;;;;;;;;5053433;28;20040;-55
2023/01/26 14:51:22;;;;;;;5.85;2.10;;;;;;;;;;5052789;28;20524;-60
2023/01/26 14:53:52;;;;;;;4.30;1.92;;;;;;;;;;5052466;28;20504;-54
2023/01/26 14:56:19;;;;;;;7.55;2.20;;;;;;;;;;5053520;28;20021;-52
2023/01/26 14:58:48;;;;;;;6.20;2.55;;;;;;;;;;5053206;28;20028;-55
2023/01/26 15:01:20;;;;;;;7.07;2.20;;;;;;;;;;5053428;28;20509;-55
2023/01/26 15:03:50;;;;;;;6.90;2.78;;;;;;;;;;5053239;28;20032;-54
2023/01/26 15:06:17;;;;;;;5.13;2.00;;;;;;;;;;5053208;28;20029;-54
2023/01/26 15:08:52;;;;;;;6.13;2.05;;;;;;;;;;5053132;28;20067;-58
2023/01/26 15:14:22;;;;;;;6.45;1.80;;;;;;;;;;5052976;28;20182;-59
2023/01/26 15:16:52;;;;;;;8.77;2.40;;;;;;;;;;5052960;28;20029;-57
2023/01/26 15:19:25;;;;;;;7.25;2.30;;;;;;;;;;5053098;28;20025;-54
2023/01/26 15:21:51;;;;;;;6.07;1.92;;;;;;;;;;5052933;28;20017;-55
2023/01/26 15:24:17;;;;;;;5.43;1.83;;;;;;;;;;5052987;28;20041;-55
2023/01/26 15:26:43;;;;;;;5.82;2.00;;;;;;;;;;5052782;28;20477;-53
2023/01/26 15:29:35;;;;;;;8.18;2.63;;;;;;;;;;5052971;28;20029;-52
2023/01/26 15:32:01;;;;;;;4.55;1.75;;;;;;;;;;5048527;28;20039;-55